createdAt,value
2022-10-25T00:13:09.955Z,14.6
2022-10-25T00:27:44.277Z,14.5
2022-10-25T00:42:18.779Z,14.5
2022-10-25T00:56:51.362Z,14.6
2022-10-25T01:11:25.610Z,14.6
2022-10-25T01:25:58.276Z,14.6
2022-10-25T01:40:30.085Z,14.5
2022-10-25T01:55:04.366Z,14.6
2022-10-25T02:09:38.141Z,14.7
2022-10-25T02:24:17.672Z,14.6
2022-10-25T02:38:48.566Z,14.7
2022-10-25T02:53:25.453Z,14.6
2022-10-25T03:07:58.199Z,14.5
2022-10-25T03:22:31.779Z,14.3
2022-10-25T03:37:04.984Z,14.3
2022-10-25T03:51:37.039Z,14.4
2022-10-25T04:06:09.135Z,14.3
2022-10-25T04:20:43.640Z,14.3
2022-10-25T04:35:18.126Z,14.2
2022-10-25T04:49:51.592Z,14.1
2022-10-25T05:04:23.800Z,14.1
2022-10-25T05:18:59.186Z,13.6
2022-10-25T05:33:31.572Z,13.8
2022-10-25T05:48:04.897Z,13.7
2022-10-25T06:02:39.803Z,13.8
2022-10-25T06:17:13.621Z,13.7
2022-10-25T06:31:47.652Z,13.8
2022-10-25T06:46:22.116Z,14
2022-10-25T07:00:57.779Z,14
2022-10-25T07:15:32.482Z,14.1
2022-10-25T07:30:05.945Z,14.1
2022-10-25T07:44:41.046Z,14.3
2022-10-25T07:59:14.865Z,14.2
2022-10-25T08:13:49.580Z,14.2
2022-10-25T08:28:24.595Z,14.5
2022-10-25T08:43:00.032Z,14.6
2022-10-25T08:57:33.740Z,14.8
2022-10-25T09:12:08.821Z,15
2022-10-25T09:26:43.720Z,15.1
2022-10-25T09:41:18.968Z,15.1
2022-10-25T09:55:53.685Z,15.6
2022-10-25T10:10:26.946Z,15.6
2022-10-25T10:25:01.714Z,15.7
2022-10-25T10:39:36.348Z,15.7
2022-10-25T10:54:10.308Z,15.4
2022-10-25T11:08:46.782Z,15.8
2022-10-25T11:23:26.344Z,15.8
2022-10-25T11:38:03.010Z,16.1
2022-10-25T11:52:33.272Z,15.2
2022-10-25T12:07:07.399Z,15.5
2022-10-25T12:21:41.418Z,14.8
2022-10-25T12:36:16.137Z,13.7
2022-10-25T12:50:50.220Z,13.7
2022-10-25T13:05:27.288Z,13.8
2022-10-25T13:19:59.539Z,13.4
2022-10-25T13:34:33.122Z,12.9
2022-10-25T13:49:07.134Z,13.1
2022-10-25T14:03:41.101Z,13.1
2022-10-25T14:18:22.752Z,13.3
2022-10-25T14:32:52.408Z,13
2022-10-25T14:47:26.989Z,13.2
2022-10-25T15:02:01.780Z,13.1
2022-10-25T15:16:35.315Z,13.1
2022-10-25T15:31:23.714Z,13.4
2022-10-25T15:45:55.223Z,13.2
2022-10-25T16:00:28.799Z,12.4
2022-10-25T16:14:57.935Z,12.8
2022-10-25T16:29:36.978Z,12.6
2022-10-25T16:44:13.408Z,13
2022-10-25T16:58:43.221Z,13.1
2022-10-25T17:13:16.302Z,13.4
2022-10-25T17:27:50.731Z,13.5
2022-10-25T17:42:23.473Z,13.2
2022-10-25T17:56:57.668Z,13.1
2022-10-25T18:11:29.729Z,13.2
2022-10-25T18:26:03.970Z,13.5
2022-10-25T18:40:38.082Z,13.1
2022-10-25T18:55:16.391Z,12.5
2022-10-25T19:09:48.147Z,12.2
2022-10-25T19:24:16.237Z,12.1
2022-10-25T19:38:50.415Z,12.3
2022-10-25T19:53:27.824Z,11.9
2022-10-25T20:08:02.658Z,11.8
2022-10-25T20:22:33.268Z,11.4
2022-10-25T20:37:05.362Z,10.8
2022-10-25T20:51:37.692Z,10.5
2022-10-25T21:06:10.772Z,10.3
2022-10-25T21:20:44.641Z,10.6
2022-10-25T21:35:20.305Z,10.8
2022-10-25T21:49:53.340Z,10.8
2022-10-25T22:04:26.090Z,10.3
2022-10-25T22:19:00.334Z,10.4
2022-10-25T22:33:35.505Z,11.1
2022-10-25T22:48:09.246Z,10.2
2022-10-25T23:02:43.978Z,10.3
2022-10-25T23:17:17.501Z,10.1
2022-10-25T23:31:51.840Z,10.3
2022-10-25T23:46:24.798Z,10.8
